createdAt,value
2022-12-12T08:39:11.131Z,3.18
2022-12-12T08:40:15.667Z,3.07
2022-12-12T08:41:20.003Z,3.23
2022-12-12T08:42:22.449Z,3.18
2022-12-12T08:43:28.691Z,3.38
2022-12-12T08:44:33.155Z,3.35
2022-12-12T08:45:40.158Z,3.11
2022-12-12T08:46:44.013Z,2.95
2022-12-12T08:47:46.588Z,2.90
2022-12-12T08:48:50.101Z,3.04
2022-12-12T08:49:53.758Z,3.31
2022-12-12T08:50:57.341Z,3.37
2022-12-12T08:52:01.791Z,3.45
2022-12-12T08:53:05.216Z,3.64
2022-12-12T08:54:11.832Z,3.74
2022-12-12T08:55:15.237Z,3.79
2022-12-12T08:56:20.842Z,3.79
2022-12-12T08:57:26.079Z,3.88
2022-12-12T08:58:29.454Z,3.75
2022-12-12T08:59:32.931Z,3.66
2022-12-12T09:01:55.814Z,3.83
2022-12-12T09:02:58.360Z,4.07
2022-12-12T09:04:03.659Z,4.26
2022-12-12T09:05:08.729Z,4.41
2022-12-12T09:06:20.162Z,4.23
2022-12-12T09:07:23.780Z,3.97
2022-12-12T09:08:27.460Z,3.78
2022-12-12T09:09:31.841Z,3.79
2022-12-12T09:10:35.398Z,3.96
2022-12-12T09:11:39.824Z,4.04
2022-12-12T09:12:44.201Z,4.11
2022-12-12T09:13:48.125Z,4.14
2022-12-12T09:14:54.504Z,4.44
2022-12-12T09:16:00.533Z,4.44
2022-12-12T09:17:03.368Z,4.64
2022-12-12T09:18:08.688Z,4.71
2022-12-12T09:19:11.965Z,4.51
2022-12-12T09:20:19.857Z,4.71
2022-12-12T09:21:23.464Z,4.93
2022-12-12T09:22:27.224Z,4.91
2022-12-12T09:23:30.915Z,4.91
2022-12-12T09:24:33.426Z,4.93
2022-12-12T09:25:42.638Z,4.85
2022-12-12T09:26:45.155Z,4.71
2022-12-12T09:27:48.485Z,4.54
2022-12-12T09:28:52.908Z,4.65
2022-12-12T09:29:55.462Z,4.57
2022-12-12T09:31:00.777Z,4.63
2022-12-12T09:32:05.384Z,4.53
2022-12-12T09:33:08.952Z,4.28
2022-12-12T09:34:12.187Z,4.09
2022-12-12T09:35:15.742Z,3.71
2022-12-12T09:36:23.122Z,3.92
2022-12-12T09:37:28.192Z,3.82
2022-12-12T09:38:32.778Z,3.80
2022-12-12T09:39:38.405Z,3.54
2022-12-12T09:41:03.194Z,3.42
2022-12-12T09:43:31.830Z,3.46
2022-12-12T09:44:34.487Z,3.25
2022-12-12T09:45:39.861Z,3.46
2022-12-12T09:46:51.742Z,3.40
2022-12-12T09:47:59.835Z,3.65
2022-12-12T09:49:20.860Z,3.35
2022-12-12T09:50:27.367Z,3.25
2022-12-12T09:51:31.143Z,2.99
2022-12-12T09:52:37.707Z,2.75
2022-12-12T09:53:43.646Z,3.00
2022-12-12T09:54:48.673Z,3.06
2022-12-12T09:55:57.700Z,3.03
2022-12-12T09:57:25.609Z,2.55
2022-12-12T09:58:49.183Z,2.43
2022-12-12T10:00:02.391Z,2.55
2022-12-12T10:01:29.139Z,2.65
2022-12-12T10:02:47.484Z,2.58
2022-12-12T10:03:57.566Z,2.33
2022-12-12T10:05:19.325Z,2.44
2022-12-12T10:06:40.131Z,2.53
2022-12-12T10:09:28.471Z,2.58
2022-12-12T10:11:55.580Z,2.80
2022-12-12T10:13:01.681Z,2.55
2022-12-12T10:14:08.839Z,2.64
2022-12-12T10:15:23.154Z,2.51
2022-12-12T10:16:29.238Z,2.43
2022-12-12T10:17:44.883Z,2.42
2022-12-12T10:18:52.202Z,2.49
2022-12-12T10:20:02.080Z,2.54
2022-12-12T10:21:09.556Z,2.47
2022-12-12T10:22:24.215Z,2.38
2022-12-12T10:23:51.166Z,2.56
2022-12-12T10:24:58.376Z,2.45
2022-12-12T10:26:15.483Z,2.55
2022-12-12T10:27:20.348Z,2.54
2022-12-12T10:28:29.857Z,2.67
2022-12-12T10:29:39.627Z,2.73
2022-12-12T10:30:52.165Z,2.78
2022-12-12T10:31:59.410Z,2.51
2022-12-12T10:33:40.176Z,2.37
2022-12-12T10:34:56.411Z,2.35
2022-12-12T10:36:27.356Z,2.28
2022-12-12T10:37:57.507Z,2.42
2022-12-12T10:39:04.846Z,2.54
2022-12-12T10:40:18.802Z,2.59
2022-12-12T10:41:35.552Z,2.62
2022-12-12T10:42:51.860Z,2.37
2022-12-12T10:44:29.686Z,2.44
2022-12-12T10:45:54.885Z,2.53
2022-12-12T10:47:10.375Z,2.53
2022-12-12T10:48:14.134Z,2.45
2022-12-12T10:49:21.841Z,2.09
2022-12-12T10:50:40.417Z,2.14
2022-12-12T10:51:46.820Z,2.14
2022-12-12T10:52:50.449Z,2.36
2022-12-12T10:53:54.060Z,2.44
2022-12-12T10:55:01.470Z,2.42
2022-12-12T10:56:11.942Z,2.35
2022-12-12T10:57:29.598Z,2.29
2022-12-12T10:58:42.798Z,2.26
2022-12-12T10:59:49.894Z,2.00
2022-12-12T11:01:02.033Z,2.13
2022-12-12T11:02:11.034Z,2.22
2022-12-12T11:03:30.472Z,2.22
2022-12-12T11:04:34.142Z,2.21
2022-12-12T11:05:40.444Z,1.92
2022-12-12T11:06:49.271Z,1.63
2022-12-12T11:08:03.237Z,1.69
2022-12-12T11:09:24.942Z,1.84
2022-12-12T11:10:34.612Z,1.54
2022-12-12T11:11:38.619Z,1.64
2022-12-12T11:12:42.038Z,1.68
2022-12-12T11:15:08.766Z,1.80
2022-12-12T11:16:19.212Z,1.64
2022-12-12T11:17:29.878Z,1.65
2022-12-12T11:18:33.556Z,1.69
2022-12-12T11:19:39.489Z,1.46
2022-12-12T11:20:48.313Z,1.66
2022-12-12T11:21:55.806Z,1.71
2022-12-12T11:22:59.513Z,1.65
2022-12-12T11:25:23.510Z,1.71
2022-12-12T11:26:29.961Z,1.69
2022-12-12T11:27:36.139Z,1.70
2022-12-12T11:28:44.770Z,1.46
2022-12-12T11:30:00.945Z,1.42
2022-12-12T11:31:09.501Z,1.54
2022-12-12T11:32:25.230Z,1.61
2022-12-12T11:33:35.715Z,1.63
2022-12-12T11:34:43.326Z,1.79
2022-12-12T11:35:47.956Z,1.89
2022-12-12T11:36:52.024Z,1.92
2022-12-12T11:38:00.756Z,2.05
2022-12-12T11:40:31.579Z,1.87
2022-12-12T11:41:40.000Z,1.90
2022-12-12T11:42:43.384Z,2.10
2022-12-12T11:43:58.855Z,2.14
2022-12-12T11:45:09.218Z,2.10
2022-12-12T11:46:17.800Z,2.05
2022-12-12T11:47:35.104Z,1.79
2022-12-12T11:48:54.762Z,1.80
2022-12-12T11:50:07.683Z,1.65
2022-12-12T11:51:13.806Z,1.36
2022-12-12T11:52:21.155Z,1.30
2022-12-12T11:53:29.011Z,1.16
2022-12-12T11:54:31.915Z,1.01
2022-12-12T11:55:42.015Z,1.00
2022-12-12T11:57:15.719Z,1.09
2022-12-12T11:58:25.685Z,1.01
2022-12-12T12:00:55.102Z,1.59
2022-12-12T12:02:01.474Z,1.47
2022-12-12T12:03:27.193Z,1.78
2022-12-12T12:04:58.726Z,1.73
2022-12-12T12:06:10.866Z,1.87
2022-12-12T12:07:24.074Z,1.72
2022-12-12T12:08:48.971Z,1.55
2022-12-12T12:09:58.182Z,1.75
2022-12-12T12:11:08.269Z,1.55
2022-12-12T12:12:24.611Z,1.55
2022-12-12T12:13:41.454Z,1.33
2022-12-12T12:15:22.114Z,1.24
2022-12-12T12:16:46.474Z,1.44
2022-12-12T12:17:59.505Z,1.47
2022-12-12T12:19:11.445Z,1.41
2022-12-12T12:20:31.594Z,1.41
2022-12-12T12:22:03.156Z,1.46
2022-12-12T12:23:21.381Z,1.52
2022-12-12T12:24:52.929Z,1.59
2022-12-12T12:26:09.863Z,1.51
2022-12-12T12:27:24.344Z,1.23
2022-12-12T12:28:57.192Z,1.22
2022-12-12T12:30:16.629Z,1.27
2022-12-12T12:31:49.959Z,1.42
2022-12-12T12:33:05.348Z,1.52
2022-12-12T12:34:24.381Z,1.64
2022-12-12T12:35:34.179Z,1.76
2022-12-12T12:36:56.945Z,1.74
2022-12-12T12:38:28.123Z,1.57
2022-12-12T12:39:41.596Z,1.55
2022-12-12T12:41:19.104Z,1.47
2022-12-12T12:42:51.663Z,1.53
2022-12-12T12:44:05.229Z,1.64
2022-12-12T12:45:21.430Z,1.78
2022-12-12T12:46:31.641Z,1.71
2022-12-12T12:47:57.097Z,1.55
2022-12-12T12:50:28.291Z,1.78
2022-12-12T12:51:45.564Z,1.70
2022-12-12T12:53:00.133Z,1.71
2022-12-12T12:54:10.145Z,1.76
2022-12-12T12:55:17.402Z,1.70
2022-12-12T12:56:28.121Z,1.71
2022-12-12T12:57:35.547Z,1.58
2022-12-12T12:58:41.782Z,1.43
2022-12-12T12:59:49.304Z,1.29
2022-12-12T13:01:11.848Z,1.31
2022-12-12T13:02:31.335Z,1.41
2022-12-12T13:03:40.404Z,1.55
2022-12-12T13:06:08.381Z,1.54
2022-12-12T13:07:21.431Z,1.36
2022-12-12T13:08:47.061Z,1.45
2022-12-12T13:10:11.320Z,1.33
2022-12-12T13:11:29.271Z,1.50
2022-12-12T13:12:48.500Z,1.52
2022-12-12T13:13:54.898Z,1.31
2022-12-12T13:15:27.308Z,1.26
2022-12-12T13:16:34.294Z,1.19
